Latest Coastal Weather Observations for Geraldton Airport

IDW60701

Issued at 1:03 am WST Thursday 30 March 2017 (issued every 10 minutes, with the page automatically refreshed every 10 minutes)

About coastal observations | Map of coastal stations | Coastal observations for WA | Marine services | Other Formats
Station Details ID: 008315 Name: GERALDTON AIRPORT Lat: -28.80 Lon: 114.70 Height: 29.7 m
Data from the previous 72 hours. | See also: Recent months at Geraldton Airport
Date/Time
WST
Temp
°C
Wind Pressure Rain since
9am
mm
Weather Cloud Vis
km
Sea
Height
m
Swell
Dir  Spd
kts
Gust
kts
hPa Trend Height
m
Period
s
Dir
30/01:00am 20.0 E 6 7 1017.2 - 0.0 - - 10 - - - -
30/12:30am 21.5 SE 10 13 1017.1 - 0.0 - - 10 - - - -
30/12:00am 18.6 SE 8 10 1017.2 - 0.0 - - 10 - - - -
 
Date/Time
WST
Temp
°C
Wind Pressure Rain since
9am
mm
Weather Cloud Vis
km
Sea
Height
m
Swell
Dir  Spd
kts
Gust
kts
hPa Trend Height
m
Period
s
Dir
29/11:30pm 18.8 SSE 8 9 1017.4 - 0.0 - - 10 - - - -
29/11:00pm 18.5 SSE 9 11 1017.5 - 0.0 - - 10 - - - -
29/10:30pm 18.6 SSE 9 10 1017.5 - 0.0 - - 10 - - - -
29/10:00pm 18.2 SE 9 10 1017.6 - 0.0 - - 10 - - - -
29/09:30pm 18.4 SSE 9 10 1017.5 - 0.0 - - 10 - - - -
29/09:00pm 18.9 SSE 8 9 1017.3 - 0.0 - - 10 - - - -
29/08:30pm 18.7 SSE 7 7 1017.2 - 0.0 - - 10 - - - -
29/08:00pm 19.8 SE 5 6 1016.9 - 0.0 - - 10 - - - -
29/07:30pm 21.5 SSE 7 9 1016.4 - 0.0 - - 10 - - - -
29/07:00pm 22.7 S 9 11 1016.3 - 0.0 - - 10 - - - -
29/06:30pm 23.3 S 11 14 1016.0 - 0.0 - - 10 - - - -
29/06:00pm 24.1 S 15 19 1015.7 - 0.0 - - 10 - - - -
29/05:30pm 25.2 S 15 21 1015.7 - 0.0 - - 10 - - - -
29/05:00pm 25.9 S 17 23 1015.5 - 0.0 - - 10 - - - -
29/04:30pm 27.0 S 18 22 1015.5 - 0.0 - - 10 - - - -
29/04:00pm 27.4 S 19 23 1015.4 - 0.0 - - 10 - - - -
29/03:30pm 28.7 S 16 23 1015.3 - 0.0 - - 10 - - - -
29/03:00pm 31.7 ESE 13 20 1015.6 - 0.0 - - 10 - - - -
29/02:30pm 31.3 SE 14 18 1015.9 - 0.0 - - 10 - - - -
29/02:00pm 31.1 SE 17 21 1016.2 - 0.0 - - 10 - - - -
29/01:30pm 30.3 ESE 15 21 1016.6 - 0.0 - - 10 - - - -
29/01:00pm 29.3 ESE 14 20 1017.1 - 0.0 - - 10 - - - -
29/12:30pm 28.6 ESE 13 21 1017.6 - 0.0 - - 10 - - - -
29/12:00pm 27.2 ESE 14 19 1018.2 - 0.0 - - 10 - - - -
29/11:30am 26.8 ESE 15 22 1018.9 - 0.0 - - 10 - - - -
29/11:00am 25.7 E 14 18 1019.2 - 0.0 - - 10 - - - -
29/10:30am 24.6 ESE 16 24 1019.5 - 0.0 - - 10 - - - -
29/10:00am 23.5 ESE 19 25 1019.6 - 0.0 - - 10 - - - -
29/09:30am 22.4 ESE 18 24 1019.6 - 0.0 - - 10 - - - -
29/09:00am 21.8 ESE 17 21 1019.7 - 0.2 - - 10 - - - -
29/08:30am 18.2 SSE 15 19 1019.6 - 0.2 - - 10 - - - -
29/08:00am 16.4 SSE 13 16 1019.5 - 0.2 - - 10 - - - -
29/07:30am 14.0 SSE 11 15 1019.4 - 0.2 - - 10 - - - -
29/07:00am 12.1 SSE 10 13 1019.2 - 0.2 - - 10 - - - -
29/06:30am 11.9 SSE 10 12 1019.0 - 0.2 - - 10 - - - -
29/06:00am 12.6 SE 9 11 1018.9 - 0.2 - - 10 - - - -
29/05:30am 13.0 SE 9 12 1018.7 - 0.2 - - 10 - - - -
29/05:00am 12.9 SE 9 10 1018.5 - 0.2 - - 10 - - - -
29/04:30am 12.8 ESE 7 9 1018.4 - 0.2 - - 10 - - - -
29/04:00am 13.6 SE 8 10 1018.4 - 0.2 - - 10 - - - -
29/03:30am 14.0 SSE 9 11 1018.1 - 0.2 - - 10 - - - -
29/03:00am 14.9 SSE 11 14 1018.2 - 0.2 - - 10 - - - -
29/02:30am 15.2 SSE 11 14 1018.2 - 0.2 - - 10 - - - -
29/02:00am 15.7 SSE 9 12 1018.4 - 0.2 - - 10 - - - -
29/01:30am 16.3 SE 11 15 1018.5 - 0.2 - - 10 - - - -
29/01:00am 16.9 SE 13 16 1018.3 - 0.2 - - 10 - - - -
29/12:30am 17.3 SE 15 19 1018.1 - 0.2 - - 10 - - - -
29/12:00am 18.0 SSE 19 25 1017.9 - 0.2 - - 10 - - - -
 
Date/Time
WST
Temp
°C
Wind Pressure Rain since
9am
mm
Weather Cloud Vis
km
Sea
Height
m
Swell
Dir  Spd
kts
Gust
kts
hPa Trend Height
m
Period
s
Dir
28/11:30pm 18.0 SSE 17 21 1018.0 - 0.2 - - 10 - - - -
28/11:00pm 18.2 SSE 15 20 1018.1 - 0.2 - - 10 - - - -
28/10:30pm 18.3 SSE 14 18 1017.8 - 0.2 - - 10 - - - -
28/10:00pm 18.5 SSE 15 19 1017.7 - 0.2 - - 10 - - - -
28/09:30pm 19.2 SSE 17 21 1017.7 - 0.2 - - 10 - - - -
28/09:00pm 19.7 SSE 17 23 1017.3 - 0.2 - - 10 - - - -
28/08:37pm 20.2 SSE 17 27 1017.1 - 0.2 - - 10 - - - -
28/08:30pm 20.1 SSE 16 23 1017.1 - 0.2 - - 10 - - - -
28/08:00pm 20.4 S 19 26 1016.7 - 0.2 - - 10 - - - -
28/07:30pm 20.4 S 17 21 1016.3 - 0.2 - - 10 - - - -
28/07:00pm 20.5 S 16 23 1015.8 - 0.2 - - 10 - - - -
28/06:30pm 20.8 S 19 24 1015.6 - 0.2 - - 10 - - - -
28/06:00pm 21.5 S 20 26 1015.3 - 0.2 - - 10 - - - -
28/05:30pm 22.2 S 20 27 1015.4 - 0.2 - - 10 - - - -
28/05:00pm 23.3 S 18 23 1015.4 - 0.2 - - 10 - - - -
28/04:30pm 23.4 S 20 26 1015.3 - 0.2 - - 10 - - - -
28/04:00pm 24.3 S 20 25 1015.3 - 0.2 - - 10 - - - -
28/03:30pm 25.4 S 20 26 1015.3 - 0.2 - - 10 - - - -
28/03:00pm 25.9 S 18 24 1015.0 - 0.2 - - 10 - - - -
28/02:30pm 26.3 S 19 23 1015.3 - 0.2 - - 10 - - - -
28/02:00pm 26.2 S 18 24 1015.3 - 0.2 - - 10 - - - -
28/01:30pm 26.8 S 16 20 1015.5 - 0.2 - - 10 - - - -
28/01:00pm 25.9 S 17 22 1015.9 - 0.0 - - 10 - - - -
28/12:30pm 25.7 S 14 18 1016.1 - 0.0 - - 10 - - - -
28/12:00pm 26.3 S 13 16 1016.1 - 0.0 - - 10 - - - -
28/11:30am 27.2 S 10 14 1016.5 - 0.0 - - 10 - - - -
28/11:00am 26.3 SSE 10 14 1016.7 - 0.0 - - 10 - - - -
28/10:30am 25.0 S 9 14 1017.1 - 0.0 - - 10 - - - -
28/10:00am 23.1 SE 8 12 1017.2 - 0.0 - - 10 - - - -
28/09:30am 21.6 SSE 9 13 1017.5 - 0.0 - - 10 - - - -
28/09:00am 19.4 SSE 11 14 1017.5 - 0.0 - - 10 - - - -
28/08:30am 17.3 SSE 10 13 1017.4 - 0.0 - - 10 - - - -
28/08:00am 16.4 SE 8 11 1017.4 - 0.0 - - 10 - - - -
28/07:30am 13.7 SE 9 12 1016.7 - 0.0 - - 10 - - - -
28/07:00am 10.1 SE 7 8 1016.7 - 0.0 - - 10 - - - -
28/06:30am 9.2 SE 7 8 1016.3 - 0.0 - - 10 - - - -
28/06:00am 9.1 SSE 8 8 1016.2 - 0.0 - - 10 - - - -
28/05:30am 10.5 SE 6 7 1016.3 - 0.0 - - 10 - - - -
28/05:00am 10.7 SE 7 9 1016.1 - 0.0 - - 10 - - - -
28/04:30am 11.0 SE 8 9 1016.0 - 0.0 - - 10 - - - -
28/04:00am 11.6 SE 9 13 1015.8 - 0.0 - - 10 - - - -
28/03:30am 12.0 SE 7 9 1015.9 - 0.0 - - 10 - - - -
28/03:00am 12.2 SSE 9 11 1016.3 - 0.0 - - 10 - - - -
28/02:30am 13.0 SSE 8 11 1016.7 - 0.0 - - 10 - - - -
28/02:00am 13.4 SE 8 11 1016.9 - 0.0 - - 10 - - - -
28/01:30am 13.6 SE 9 11 1017.0 - 0.0 - - 10 - - - -
28/01:00am 13.9 SE 9 11 1017.0 - 0.0 - - 10 - - - -
28/12:30am 14.2 SE 9 11 1017.1 - 0.0 - - 10 - - - -
28/12:00am 14.8 SE 11 13 1017.1 - 0.0 - - 10 - - - -
 
Date/Time
WST
Temp
°C
Wind Pressure Rain since
9am
mm
Weather Cloud Vis
km
Sea
Height
m
Swell
Dir  Spd
kts
Gust
kts
hPa Trend Height
m
Period
s
Dir
27/11:30pm 15.9 SE 11 14 1017.4 - 0.0 - - 10 - - - -
27/11:00pm 16.4 SSE 11 14 1017.5 - 0.0 - - 10 - - - -
27/10:30pm 17.0 SSE 12 15 1017.4 - 0.0 - - 10 - - - -
27/10:00pm 16.6 SSE 9 11 1017.3 - 0.0 - - 10 - - - -
27/09:30pm 18.0 SSE 9 13 1017.3 - 0.0 - - 10 - - - -
27/09:00pm 19.3 SSE 13 16 1017.0 - 0.0 - - 10 - - - -
27/08:30pm 19.8 SSE 12 17 1016.9 - 0.0 - - 10 - - - -
27/08:00pm 20.1 SSE 13 17 1016.7 - 0.0 - - 10 - - - -
27/07:30pm 20.6 S 15 20 1016.3 - 0.0 - - 10 - - - -
27/07:00pm 20.5 S 14 19 1015.9 - 0.0 - - 10 - - - -
27/06:30pm 20.7 S 14 19 1015.8 - 0.0 - - 10 - - - -
27/06:00pm 21.3 S 19 25 1015.5 - 0.0 - - 10 - - - -
27/05:30pm 22.5 S 18 25 1015.4 - 0.0 - - 10 - - - -
27/05:00pm 22.8 S 20 26 1015.3 - 0.0 - - 10 - - - -
27/04:30pm 23.7 S 19 24 1015.5 - 0.0 - - 10 - - - -
27/04:00pm 23.6 S 19 24 1015.6 - 0.0 - - 10 - - - -
27/03:30pm 24.1 S 20 26 1015.7 - 0.0 - - 10 - - - -
27/03:00pm 24.6 S 19 26 1015.6 - 0.0 - - 10 - - - -
27/02:30pm 24.7 S 17 23 1016.1 - 0.0 - - 10 - - - -
27/02:00pm 25.9 S 17 23 1016.5 - 0.0 - - 10 - - - -
27/01:30pm 25.8 S 15 20 1016.8 - 0.0 - - 10 - - - -
27/01:00pm 25.6 SSW 15 21 1017.2 - 0.0 - - 10 - - - -
27/12:30pm 26.7 ESE 9 16 1018.0 - 0.0 - - 10 - - - -
27/12:00pm 25.7 ESE 11 14 1018.5 - 0.0 - - 10 - - - -
27/11:30am 24.9 ESE 11 16 1019.2 - 0.0 - - 10 - - - -
27/11:00am 24.1 ESE 11 17 1019.5 - 0.0 - - 10 - - - -
27/10:30am 22.9 ESE 13 17 1020.2 - 0.0 - - 10 - - - -
27/10:00am 22.5 ESE 13 18 1020.4 - 0.0 - - 10 - - - -
27/09:30am 21.1 ESE 15 18 1020.5 - 0.0 - - 10 - - - -
27/09:00am 19.6 ESE 14 17 1020.9 - 0.0 - - 10 - - - -
27/08:30am 18.1 SE 16 20 1021.0 - 0.0 - - 10 - - - -
27/08:00am 17.5 SE 13 19 1021.3 - 0.0 - - 10 - - - -
27/07:30am 15.6 ESE 10 11 1021.4 - 0.0 - - 10 - - - -
27/07:00am 13.7 ESE 7 11 1021.2 - 0.0 - - 10 - - - -
27/06:30am 12.1 SE 7 10 1021.0 - 0.0 - - 10 - - - -
27/06:00am 11.5 ESE 9 11 1020.7 - 0.0 - - 10 - - - -
27/05:30am 12.8 ESE 8 10 1020.7 - 0.0 - - 10 - - - -
27/05:00am 12.2 ESE 7 9 1020.3 - 0.0 - - 10 - - - -
27/04:30am 10.7 SE 5 6 1020.3 - 0.0 - - 10 - - - -
27/04:00am 10.8 SE 4 6 1020.2 - 0.0 - - 10 - - - -
27/03:30am 11.7 SE 9 10 1020.0 - 0.0 - - 10 - - - -
27/03:00am 12.9 SE 7 9 1020.0 - 0.0 - - 10 - - - -
27/02:30am 13.9 SE 8 10 1019.8 - 0.0 - - 10 - - - -
27/02:00am 14.6 SE 8 9 1019.9 - 0.0 - - 10 - - - -
27/01:30am 15.4 ESE 9 12 1019.8 - 0.0 - - 10 - - - -

Other Formats:

Comma delimited format used in spreadsheet applications
http://www.bom.gov.au/fwo/IDW60701/IDW60701.94403.axf

JavaScript Object Notation format (JSON) in row-major order
http://www.bom.gov.au/fwo/IDW60701/IDW60701.94403.json